SVPL1: Red River at Shreveport Site 2

                                SHEF ID:       SVPL1     Red River at Shreveport Site 2
STATION TYPE:

PRECIP STAGE RIV-FLOW VOLTAGE
in ft cfs volt
Ccp-Rev Ccp-Rev Ccp-Rev Ccp-Rev
(America/Chicago)
07/08 00:00 0.00 16.16 24960 12.76
07/08 01:00 0.00 16.14 24840 12.74
07/08 02:00 0.00 16.11 24660 12.73
07/08 03:00 0.00 16.09 24540 12.73
07/08 04:00 0.00 16.07 24420 12.72
07/08 05:00 0.00 16.06 24360 12.72
07/08 06:00 0.00 16.02 24120 12.73
07/08 07:00 0.00 16.00 24000 13.00
07/08 08:00 0.00 15.92 23360 13.28
07/08 09:00 0.00 15.90 23200 13.06
07/08 10:00 0.00 15.85 22800 13.06
07/08 11:00 0.00 15.85 22800 13.07
07/08 12:00 0.00 15.81 22480 13.09
07/08 13:00 0.00 15.76 22080 13.07
07/08 14:00 0.00 15.81 22480 13.06
07/08 15:00 0.00 15.66 21280 13.10
07/08 16:00 0.00 15.68 21440 13.06
07/08 17:00 0.00 15.71 21680 13.07
07/08 18:00 0.00 15.69 21520 13.03
07/08 19:00 0.00 15.65 21200 12.91
07/08 20:00 0.00 15.62 20960 12.89
07/08 21:00 0.00 15.58 20640 12.86
07/08 22:00 0.00 15.58 20640 12.86
07/08 23:00 0.00 15.58 20640 12.86
Data processed at Thu 09Jul2026 04:24 GMT

NOTICE: If you are parsing this page

Please convert to using our Data API. Starting early 2026 we will be migrating to: https://water.usace.army.mil with modern pages rendered in JavaScript. When this migration completes you will no longer be able to scrape this page! CWMSDataAPI (CDA)

Timeseries IDs (TSIDs)

TSIDs used from left to right in the data table
SHRE.Precip-Inc.Total.1Hour.1Hour.Ccp-Rev
SHRE.Stage.Inst.1Hour.0.Ccp-Rev
SHRE.Flow.Inst.1Hour.0.Ccp-Rev
SHRE.Volt-Battery.Inst.1Hour.0.Ccp-Rev

                            

All information presented herein is the property of the government of the United States of America and may be revised or deleted at any time without prior notice. Dissemination of this information without the expressed written consent of the Public Affairs Office, Tulsa District U.S. Army Corps of Engineers is strictly prohibited. These data are gathered electronically and, as presented, have NOT undergone any form of quality control. These data are NOT guaranteed to be valid or correct.